Willaura Estates, California
Current Conditions -  °F | °C
As of 5:25 PM on Saturday 20 Dec 2014 (Local Time) from KGOO Reporting Station
Overcast Overcast  
Wind Chill: 41°   Ceiling: 1600
Heat Index: 45°   Visibility: 3mi
Dew Point: 45°   Wind: 6mph
Humidity: 100%   Direction: 140°SE
Pressure: 30.23"   Gusts: NA
Location:  39.2183°N, 120.924°W
Report Text: KGOO 210125Z AUTO 14005KT 3SM SCT003 BKN016 OVC033 07/07 A3023 RMK AO1
Loading
Personal Weather Stations






























Interactive Weather Map New forecast layout! Learn more

10-Day Weather Forecast

Advertisements
Track Severe Weather on mobile